Time;durP1;ratioP1;P1;durP2;ratioP2;P2;SDS_P1;SDS_P2;PMS_P1;PMS_P2;Temp;Humidity;BMP_temperature;BMP_pressure;BME280_temperature;BME280_humidity;BME280_pressure;Samples;Min_cycle;Max_cycle;Signal;HPM_P1;HPM_P2
2022/09/26 00:01:08;;;;;;;5.53;0.98;;;11.60;99.90;;;;;;4993013;28;20037;-89
2022/09/26 00:03:35;;;;;;;5.75;1.17;;;12.00;99.90;;;;;;5026220;28;20055;-90
2022/09/26 00:06:07;;;;;;;5.72;1.00;;;11.60;99.90;;;;;;5025642;28;20153;-90
2022/09/26 00:08:34;;;;;;;7.20;0.93;;;11.60;99.90;;;;;;5010351;28;20045;-89
2022/09/26 00:11:02;;;;;;;3.10;1.00;;;11.60;99.90;;;;;;4996170;28;20094;-88
2022/09/26 00:13:30;;;;;;;3.13;0.60;;;11.60;99.90;;;;;;5029400;28;20053;-92
2022/09/26 00:15:57;;;;;;;1.35;0.75;;;12.10;99.90;;;;;;5012898;28;20562;-90
2022/09/26 00:18:23;;;;;;;2.72;0.82;;;11.60;99.90;;;;;;5035852;28;20125;-89
2022/09/26 00:20:49;;;;;;;5.55;1.23;;;12.50;99.90;;;;;;5021166;28;20129;-90
2022/09/26 00:23:15;;;;;;;2.63;0.77;;;11.60;99.90;;;;;;5036943;28;20045;-90
2022/09/26 00:25:49;;;;;;;3.67;1.10;;;11.70;99.90;;;;;;5020771;28;20052;-90
2022/09/26 00:28:15;;;;;;;4.72;0.90;;;11.60;99.90;;;;;;5036952;28;20052;-90
2022/09/26 00:30:43;;;;;;;2.83;0.65;;;11.50;99.90;;;;;;5032006;28;20098;-91
2022/09/26 00:33:12;;;;;;;3.67;1.35;;;11.50;99.90;;;;;;5027971;28;20052;-90
2022/09/26 00:35:38;;;;;;;2.83;1.00;;;11.60;99.90;;;;;;4994702;28;20041;-89
2022/09/26 00:38:04;;;;;;;4.00;0.80;;;11.60;99.90;;;;;;5010895;28;20056;-89
2022/09/26 00:40:31;;;;;;;6.85;1.00;;;11.90;99.90;;;;;;5013153;28;20045;-91
2022/09/26 00:42:57;;;;;;;11.38;2.47;;;11.60;99.90;;;;;;5030296;28;20041;-91
2022/09/26 00:45:29;;;;;;;5.07;1.08;;;11.60;99.90;;;;;;5013647;28;20041;-90
2022/09/26 00:48:04;;;;;;;3.35;1.00;;;11.60;99.90;;;;;;5010958;28;20043;-89
2022/09/26 00:50:40;;;;;;;3.65;0.80;;;12.60;99.90;;;;;;5028769;28;20089;-90
2022/09/26 00:53:11;;;;;;;4.72;1.40;;;11.80;99.90;;;;;;5028496;28;20081;-90
2022/09/26 00:55:41;;;;;;;3.30;0.55;;;11.60;99.90;;;;;;5011998;28;20500;-91
2022/09/26 00:58:22;;;;;;;6.82;0.93;;;11.60;99.90;;;;;;5026218;28;20213;-89
2022/09/26 01:00:49;;;;;;;8.50;1.17;;;11.60;99.90;;;;;;5025252;28;20064;-88
2022/09/26 01:03:17;;;;;;;6.43;1.08;;;11.60;99.90;;;;;;4993373;28;20409;-90
2022/09/26 01:05:45;;;;;;;1.95;0.63;;;11.60;99.90;;;;;;4991392;28;20052;-89
2022/09/26 01:08:13;;;;;;;4.80;0.93;;;11.60;99.90;;;;;;5008313;28;20069;-89
2022/09/26 01:10:38;;;;;;;4.80;0.70;;;11.60;99.90;;;;;;5024971;28;20081;-89
2022/09/26 01:13:07;;;;;;;3.28;0.60;;;11.80;99.90;;;;;;5008202;28;20088;-89
2022/09/26 01:15:35;;;;;;;3.65;0.80;;;11.60;99.90;;;;;;5008962;28;20045;-88
2022/09/26 01:18:02;;;;;;;3.42;1.10;;;11.50;99.90;;;;;;4991593;28;20045;-89
2022/09/26 01:21:00;;;;;;;5.10;0.75;;;11.60;99.90;;;;;;5008338;28;20073;-90
2022/09/26 01:24:02;;;;;;;3.15;1.77;;;11.60;99.90;;;;;;5024466;28;20092;-88
2022/09/26 01:26:57;;;;;;;4.90;1.00;;;11.60;99.90;;;;;;5029758;28;20463;-88
2022/09/26 01:29:54;;;;;;;2.35;0.73;;;11.60;99.90;;;;;;5012529;28;20443;-89
2022/09/26 01:32:49;;;;;;;5.43;0.90;;;11.60;99.90;;;;;;5011076;28;20113;-87
2022/09/26 01:35:41;;;;;;;4.57;1.00;;;11.90;99.90;;;;;;5014417;28;20041;-90
2022/09/26 01:38:29;;;;;;;2.63;0.80;;;11.60;99.90;;;;;;5029728;28;20053;-88
2022/09/26 01:41:15;;;;;;;2.28;0.90;;;11.60;99.90;;;;;;5029816;28;20053;-89
2022/09/26 01:44:02;;;;;;;5.15;1.58;;;11.60;99.90;;;;;;5010410;28;20053;-89
2022/09/26 01:46:39;;;;;;;5.88;0.93;;;11.60;99.90;;;;;;5028565;28;20095;-91
2022/09/26 01:49:13;;;;;;;6.93;1.20;;;11.60;99.90;;;;;;5028807;28;20081;-88
2022/09/26 01:51:49;;;;;;;3.58;1.17;;;11.60;99.90;;;;;;5029505;28;20077;-89
2022/09/26 01:54:33;;;;;;;5.13;1.23;;;11.60;99.90;;;;;;5029433;28;20538;-89
2022/09/26 01:57:03;;;;;;;4.93;1.45;;;11.70;99.90;;;;;;5011293;28;20128;-89
2022/09/26 01:59:34;;;;;;;4.85;1.25;;;11.60;99.90;;;;;;5029815;28;20049;-89
2022/09/26 02:02:25;;;;;;;9.13;1.10;;;11.50;99.90;;;;;;5027909;28;20041;-89
2022/09/26 02:05:06;;;;;;;3.20;1.00;;;11.50;99.90;;;;;;5029257;28;20152;-88
2022/09/26 02:07:44;;;;;;;3.33;1.60;;;11.50;99.90;;;;;;5029805;28;20114;-88
2022/09/26 02:10:20;;;;;;;6.05;1.63;;;11.50;99.90;;;;;;5027385;28;20056;-89
2022/09/26 02:12:53;;;;;;;8.15;1.48;;;11.50;99.90;;;;;;5029705;28;20407;-89
2022/09/26 02:15:23;;;;;;;8.52;2.08;;;11.50;99.90;;;;;;5028504;28;20143;-88
2022/09/26 02:17:55;;;;;;;4.80;1.20;;;11.50;99.90;;;;;;5028079;28;20042;-88
2022/09/26 02:20:29;;;;;;;3.95;1.60;;;11.50;99.90;;;;;;5013436;28;20060;-89
2022/09/26 02:22:58;;;;;;;6.65;1.83;;;11.40;99.90;;;;;;5028344;28;20393;-88
2022/09/26 02:25:23;;;;;;;8.60;1.70;;;11.40;99.90;;;;;;5012634;28;20128;-89
2022/09/26 02:27:49;;;;;;;5.85;1.42;;;12.00;99.90;;;;;;5011936;28;20125;-90
2022/09/26 02:30:15;;;;;;;4.10;1.60;;;11.40;99.90;;;;;;5029778;28;20467;-90
2022/09/26 02:32:41;;;;;;;5.35;1.70;;;11.90;99.90;;;;;;4996185;28;20072;-91
2022/09/26 02:37:53;;;;;;;6.57;1.80;;;11.40;99.90;;;;;;5015847;28;20112;-90
2022/09/26 02:40:26;;;;;;;6.18;2.22;;;12.40;99.90;;;;;;5012651;28;20049;-90
2022/09/26 02:43:01;;;;;;;6.10;1.88;;;11.30;99.90;;;;;;5033131;28;20057;-89
2022/09/26 02:45:46;;;;;;;9.10;2.10;;;11.40;99.90;;;;;;5003156;28;20314;-90
2022/09/26 02:48:46;;;;;;;4.47;1.88;;;11.30;99.90;;;;;;5013548;28;20096;-89
2022/09/26 02:51:53;;;;;;;6.43;1.92;;;11.20;99.90;;;;;;5034977;28;20517;-89
2022/09/26 02:54:38;;;;;;;9.70;2.50;;;11.20;99.90;;;;;;5018778;28;20439;-89
2022/09/26 02:57:35;;;;;;;7.63;2.67;;;11.20;99.90;;;;;;5017039;28;20049;-90
2022/09/26 03:00:19;;;;;;;7.38;1.88;;;11.20;99.90;;;;;;5018472;28;20045;-89
2022/09/26 03:03:08;;;;;;;8.48;2.38;;;11.20;99.90;;;;;;5017960;28;20037;-89
2022/09/26 03:05:43;;;;;;;5.05;2.00;;;11.20;99.90;;;;;;5018198;28;20045;-88
2022/09/26 03:08:50;;;;;;;5.20;2.30;;;11.20;99.90;;;;;;5035608;28;20401;-89
2022/09/26 03:11:22;;;;;;;8.15;2.28;;;11.20;99.90;;;;;;4996474;28;20454;-89
2022/09/26 03:13:51;;;;;;;5.05;2.10;;;11.30;99.90;;;;;;5034143;28;20041;-88
2022/09/26 03:16:19;;;;;;;4.85;2.08;;;11.20;99.90;;;;;;5034221;28;20069;-86
2022/09/26 03:18:54;;;;;;;6.28;2.33;;;11.20;99.90;;;;;;5017006;28;20219;-87
2022/09/26 03:21:21;;;;;;;6.20;2.00;;;11.90;99.90;;;;;;5018430;28;20132;-88
2022/09/26 03:23:48;;;;;;;14.25;2.30;;;11.20;99.90;;;;;;5033149;28;20045;-88
2022/09/26 03:26:18;;;;;;;5.05;2.17;;;12.10;99.90;;;;;;5018559;28;20038;-90
2022/09/26 03:28:44;;;;;;;6.78;2.28;;;11.80;99.90;;;;;;5017515;28;20033;-88
2022/09/26 03:31:10;;;;;;;6.85;2.40;;;11.80;99.90;;;;;;5016930;28;20132;-88
2022/09/26 03:33:35;;;;;;;4.57;2.28;;;11.20;99.90;;;;;;5001054;28;20045;-88
2022/09/26 03:36:06;;;;;;;9.32;2.33;;;12.30;99.90;;;;;;5016449;28;20041;-89
2022/09/26 03:38:32;;;;;;;7.57;2.60;;;11.20;99.90;;;;;;5017798;28;20072;-90
2022/09/26 03:40:57;;;;;;;7.63;2.45;;;11.20;99.90;;;;;;4999767;28;20049;-90
2022/09/26 03:43:23;;;;;;;10.10;2.92;;;11.20;99.90;;;;;;5001664;28;20045;-90
2022/09/26 03:45:50;;;;;;;3.65;2.38;;;11.90;99.90;;;;;;5000604;28;20045;-89
2022/09/26 03:48:15;;;;;;;4.70;2.25;;;12.00;99.90;;;;;;4984688;28;20037;-90
2022/09/26 03:50:41;;;;;;;8.20;2.70;;;11.20;99.90;;;;;;5017913;28;20115;-88
2022/09/26 03:53:07;;;;;;;8.00;2.60;;;11.70;99.90;;;;;;4983769;28;20054;-88
2022/09/26 03:55:34;;;;;;;6.55;2.60;;;11.20;99.90;;;;;;5017191;28;20544;-86
2022/09/26 03:58:00;;;;;;;10.23;2.22;;;11.80;99.90;;;;;;5032897;28;20068;-89
2022/09/26 04:00:26;;;;;;;7.57;3.13;;;11.80;99.90;;;;;;5018495;28;20048;-88
2022/09/26 04:02:53;;;;;;;3.00;2.53;;;11.20;99.90;;;;;;5016795;28;20041;-90
2022/09/26 04:05:18;;;;;;;5.25;2.30;;;12.00;99.90;;;;;;5001422;28;20479;-89
2022/09/26 04:07:45;;;;;;;4.78;2.95;;;11.20;99.90;;;;;;5017892;28;20049;-89
2022/09/26 04:10:12;;;;;;;5.07;2.95;;;11.20;99.90;;;;;;5016822;28;20076;-90
2022/09/26 04:12:38;;;;;;;5.50;2.90;;;11.40;99.90;;;;;;5000213;28;20033;-91
2022/09/26 04:15:07;;;;;;;4.85;2.70;;;10.30;99.90;;;;;;5014206;28;20037;-89
2022/09/26 04:17:33;;;;;;;7.32;3.00;;;11.20;99.90;;;;;;4982586;28;20060;-91
2022/09/26 04:19:59;;;;;;;7.95;3.58;;;11.20;99.90;;;;;;4997495;28;20081;-89
2022/09/26 04:22:26;;;;;;;5.50;2.92;;;11.20;99.90;;;;;;4981795;28;20083;-90
2022/09/26 04:24:52;;;;;;;5.15;2.95;;;11.40;99.90;;;;;;5015069;28;20431;-92
2022/09/26 04:27:18;;;;;;;14.48;4.50;;;11.20;99.90;;;;;;4997870;28;20485;-87
2022/09/26 04:29:44;;;;;;;9.23;2.90;;;11.20;99.90;;;;;;5014890;28;20042;-89
2022/09/26 04:32:11;;;;;;;8.95;3.10;;;11.20;99.90;;;;;;5009616;28;20045;-90
2022/09/26 04:34:39;;;;;;;4.82;3.03;;;12.30;99.90;;;;;;5010243;28;20038;-87
2022/09/26 04:37:05;;;;;;;4.88;2.92;;;11.20;99.90;;;;;;5014631;28;20045;-89
2022/09/26 04:39:32;;;;;;;4.80;3.00;;;11.60;99.90;;;;;;5015414;28;20057;-87
2022/09/26 04:41:57;;;;;;;7.07;2.85;;;11.20;99.90;;;;;;5030694;28;20115;-88
2022/09/26 04:44:23;;;;;;;7.30;3.03;;;11.20;99.90;;;;;;5021317;28;20045;-87
2022/09/26 04:46:52;;;;;;;9.77;3.38;;;11.10;99.90;;;;;;5023412;28;20042;-88
2022/09/26 04:49:18;;;;;;;5.68;3.15;;;11.20;99.90;;;;;;5037846;28;20048;-89
2022/09/26 04:51:44;;;;;;;6.93;4.00;;;11.50;99.90;;;;;;5006790;28;20061;-90
2022/09/26 04:54:10;;;;;;;10.88;3.47;;;12.00;99.90;;;;;;5005376;28;20056;-87
2022/09/26 04:56:35;;;;;;;11.43;3.92;;;11.20;99.90;;;;;;5038594;28;20034;-86
2022/09/26 04:59:01;;;;;;;8.68;4.47;;;12.30;99.90;;;;;;5021851;28;20037;-85
2022/09/26 05:01:28;;;;;;;4.80;3.47;;;11.10;99.90;;;;;;5050326;28;20049;-91
2022/09/26 05:03:57;;;;;;;8.80;4.03;;;11.20;99.90;;;;;;5000058;28;20072;-89
2022/09/26 05:06:23;;;;;;;9.80;3.47;;;11.50;99.90;;;;;;5000421;28;20102;-94
2022/09/26 05:08:49;;;;;;;8.00;4.00;;;12.00;99.90;;;;;;4985840;28;20175;-86
2022/09/26 05:11:17;;;;;;;8.85;3.95;;;11.10;99.90;;;;;;5017809;28;20069;-86
2022/09/26 05:13:43;;;;;;;7.30;4.03;;;11.10;99.90;;;;;;4999966;28;20419;-86
2022/09/26 05:16:10;;;;;;;5.93;3.42;;;11.10;99.90;;;;;;4998828;28;20378;-85
2022/09/26 05:18:38;;;;;;;6.80;3.38;;;11.10;99.90;;;;;;5014767;28;20412;-84
2022/09/26 05:21:05;;;;;;;8.23;3.50;;;11.50;99.90;;;;;;5017025;28;20041;-85
2022/09/26 05:26:24;;;;;;;6.43;3.70;;;11.10;99.90;;;;;;5025777;28;20050;-88
2022/09/26 05:29:00;;;;;;;6.43;3.50;;;11.10;99.90;;;;;;5023017;28;20042;-88
2022/09/26 05:31:28;;;;;;;7.55;3.17;;;11.10;99.90;;;;;;5021456;28;20103;-88
2022/09/26 05:33:57;;;;;;;7.72;3.83;;;12.00;99.90;;;;;;5042822;28;20052;-90
2022/09/26 05:36:24;;;;;;;8.82;3.58;;;11.10;99.90;;;;;;5040905;28;20053;-90
2022/09/26 05:38:50;;;;;;;7.22;4.53;;;11.00;99.90;;;;;;5034189;28;20415;-89
2022/09/26 05:41:16;;;;;;;8.38;3.78;;;11.20;99.90;;;;;;5030519;28;20451;-88
2022/09/26 05:43:42;;;;;;;7.82;4.18;;;11.30;99.90;;;;;;5013895;28;20075;-91
2022/09/26 05:46:09;;;;;;;6.85;3.55;;;11.40;99.90;;;;;;5012624;28;20111;-88
2022/09/26 05:48:37;;;;;;;8.73;4.38;;;11.40;99.90;;;;;;5011886;28;20041;-87
2022/09/26 05:51:09;;;;;;;6.88;3.63;;;11.00;99.90;;;;;;5012356;28;20064;-87
2022/09/26 05:53:36;;;;;;;7.70;3.15;;;12.00;99.90;;;;;;5009977;28;20045;-87
2022/09/26 05:56:02;;;;;;;6.00;3.83;;;11.60;99.90;;;;;;5011463;28;20042;-87
2022/09/26 05:58:33;;;;;;;9.10;4.18;;;11.00;99.90;;;;;;4993374;28;20092;-88
2022/09/26 06:01:06;;;;;;;7.03;3.80;;;11.70;99.90;;;;;;4995304;28;20485;-86
2022/09/26 06:03:33;;;;;;;7.47;3.85;;;11.00;99.90;;;;;;5027396;28;20137;-88
2022/09/26 06:06:03;;;;;;;4.22;3.40;;;11.00;99.90;;;;;;5010603;28;20107;-89
2022/09/26 06:08:29;;;;;;;13.15;4.20;;;11.00;99.90;;;;;;5027986;28;20087;-87
2022/09/26 06:11:03;;;;;;;5.93;3.47;;;11.00;99.90;;;;;;5009321;28;20395;-87
2022/09/26 06:13:29;;;;;;;11.40;4.05;;;11.60;99.90;;;;;;4995971;28;20048;-87
2022/09/26 06:15:59;;;;;;;8.07;4.15;;;11.00;99.90;;;;;;5009997;28;20045;-87
2022/09/26 06:18:24;;;;;;;6.03;4.13;;;11.40;99.90;;;;;;5014730;28;20057;-87
2022/09/26 06:20:50;;;;;;;7.53;3.53;;;11.00;99.90;;;;;;4999468;28;20445;-87
2022/09/26 06:23:16;;;;;;;7.80;3.58;;;12.20;99.90;;;;;;5000145;28;20042;-88
2022/09/26 06:25:42;;;;;;;6.78;3.88;;;11.60;99.90;;;;;;5019596;28;20053;-88
2022/09/26 06:28:07;;;;;;;6.05;3.92;;;11.50;99.90;;;;;;4999967;28;20053;-87
2022/09/26 06:30:34;;;;;;;5.80;4.00;;;11.90;99.90;;;;;;4984060;28;20045;-87
2022/09/26 06:33:00;;;;;;;6.70;3.10;;;10.90;99.90;;;;;;4998702;28;20046;-89
2022/09/26 06:35:26;;;;;;;7.20;3.28;;;10.90;99.90;;;;;;5015666;28;20053;-87
2022/09/26 06:37:52;;;;;;;7.93;3.95;;;10.90;99.90;;;;;;4998255;28;20057;-87
2022/09/26 06:40:18;;;;;;;7.82;3.20;;;10.90;99.90;;;;;;4997957;28;20053;-86
2022/09/26 06:42:45;;;;;;;5.60;3.10;;;10.90;99.90;;;;;;4982457;28;20042;-86
2022/09/26 06:45:11;;;;;;;8.38;3.72;;;10.90;99.90;;;;;;5013196;28;20048;-87
2022/09/26 06:47:37;;;;;;;6.53;3.40;;;10.90;99.90;;;;;;4982953;28;20128;-87
2022/09/26 06:50:03;;;;;;;7.78;3.67;;;11.60;99.90;;;;;;5013652;28;20550;-87
2022/09/26 06:52:33;;;;;;;13.38;3.15;;;10.90;99.90;;;;;;5014755;28;20451;-87
2022/09/26 06:55:01;;;;;;;10.10;3.92;;;10.90;99.90;;;;;;5014248;28;20033;-86
2022/09/26 06:57:28;;;;;;;9.65;3.78;;;10.90;99.90;;;;;;5030351;28;20041;-86
2022/09/26 06:59:54;;;;;;;10.13;3.72;;;10.90;99.90;;;;;;5031305;28;20053;-86
2022/09/26 07:02:20;;;;;;;4.60;2.85;;;10.90;99.90;;;;;;5012728;28;20055;-86
2022/09/26 07:04:46;;;;;;;6.93;3.42;;;11.00;99.90;;;;;;5014639;28;20128;-85
2022/09/26 07:07:11;;;;;;;6.68;3.40;;;10.90;99.90;;;;;;5012733;28;20131;-85
2022/09/26 07:09:39;;;;;;;6.38;3.20;;;10.80;99.90;;;;;;5030726;28;20093;-86
2022/09/26 07:12:05;;;;;;;7.00;3.20;;;10.90;99.90;;;;;;4981908;28;20042;-85
2022/09/26 07:14:31;;;;;;;6.65;3.63;;;10.90;99.90;;;;;;4996479;28;20046;-86
2022/09/26 07:16:57;;;;;;;7.78;3.50;;;10.90;99.90;;;;;;5014553;28;20158;-86
2022/09/26 07:19:22;;;;;;;10.27;3.05;;;10.90;99.90;;;;;;5012561;28;20052;-85
2022/09/26 07:21:48;;;;;;;10.27;4.32;;;11.00;99.90;;;;;;5014608;28;20049;-86
2022/09/26 07:24:14;;;;;;;7.70;3.17;;;11.00;99.90;;;;;;4996504;28;20175;-85
2022/09/26 07:26:41;;;;;;;8.75;3.13;;;12.00;99.90;;;;;;4998397;28;20514;-86
2022/09/26 07:29:07;;;;;;;5.97;2.78;;;11.10;99.90;;;;;;4980000;28;20569;-87
2022/09/26 07:31:33;;;;;;;5.95;2.92;;;11.40;99.90;;;;;;4981131;28;20041;-85
2022/09/26 07:33:58;;;;;;;7.90;3.35;;;11.10;99.90;;;;;;5013968;28;20128;-87
2022/09/26 07:36:24;;;;;;;7.97;3.15;;;11.10;99.90;;;;;;4995813;28;20046;-86
2022/09/26 07:38:50;;;;;;;7.05;2.40;;;11.10;99.90;;;;;;5030302;28;20136;-85
2022/09/26 07:41:16;;;;;;;5.38;2.58;;;11.10;99.90;;;;;;5028674;28;20056;-87
2022/09/26 07:43:42;;;;;;;5.32;2.97;;;11.10;99.90;;;;;;5014064;28;20164;-86
2022/09/26 07:51:40;;;;;;;11.10;2.90;;;11.00;99.90;;;;;;5016700;28;20041;-86
2022/09/26 07:54:06;;;;;;;5.85;2.67;;;11.20;99.90;;;;;;5012105;28;20045;-86
2022/09/26 07:56:34;;;;;;;5.55;2.10;;;11.00;99.90;;;;;;5014055;28;20346;-85
2022/09/26 07:59:04;;;;;;;6.68;2.50;;;11.10;99.90;;;;;;5012549;28;20079;-86
2022/09/26 08:01:30;;;;;;;6.80;2.40;;;11.10;99.90;;;;;;4996698;28;20041;-86
2022/09/26 08:03:57;;;;;;;8.95;4.18;;;11.20;99.90;;;;;;5029974;28;20045;-86
2022/09/26 08:06:24;;;;;;;5.05;2.42;;;11.20;99.90;;;;;;4995441;28;20119;-85
2022/09/26 08:08:54;;;;;;;8.77;2.55;;;11.30;99.90;;;;;;5031251;28;20049;-86
2022/09/26 08:11:20;;;;;;;5.70;2.65;;;11.40;99.90;;;;;;5028184;28;20133;-86
2022/09/26 08:13:46;;;;;;;6.68;2.30;;;11.40;99.90;;;;;;5029614;28;20132;-86
2022/09/26 08:16:21;;;;;;;11.52;3.53;;;11.50;99.90;;;;;;5012541;28;20046;-86
2022/09/26 08:18:53;;;;;;;3.92;2.05;;;11.50;99.90;;;;;;5012116;28;20052;-86
2022/09/26 08:21:20;;;;;;;6.32;2.45;;;11.50;99.90;;;;;;5013518;28;20042;-86
2022/09/26 08:23:46;;;;;;;4.15;2.60;;;11.60;99.90;;;;;;5027803;28;20137;-86
2022/09/26 08:26:11;;;;;;;4.82;2.22;;;11.60;99.90;;;;;;5029595;28;20128;-86
2022/09/26 08:28:37;;;;;;;5.43;2.00;;;11.60;99.90;;;;;;5011597;28;20132;-86
2022/09/26 08:31:04;;;;;;;4.80;2.33;;;12.30;99.90;;;;;;5013039;28;20041;-87
2022/09/26 08:33:35;;;;;;;4.93;1.80;;;11.70;99.90;;;;;;5012720;28;20041;-86
2022/09/26 08:36:10;;;;;;;4.22;1.70;;;11.70;99.90;;;;;;5028374;28;20056;-86
2022/09/26 08:38:37;;;;;;;6.10;2.08;;;11.70;99.90;;;;;;5012711;28;20103;-85
2022/09/26 08:41:31;;;;;;;6.10;2.28;;;11.70;99.90;;;;;;5027819;28;20122;-86
2022/09/26 08:44:20;;;;;;;8.32;1.98;;;11.70;99.90;;;;;;5029075;28;20140;-86
2022/09/26 08:49:41;;;;;;;4.15;1.80;;;11.70;99.90;;;;;;5027754;28;20045;-86
2022/09/26 08:52:26;;;;;;;5.53;2.97;;;11.70;99.90;;;;;;5029038;28;20053;-87
2022/09/26 08:54:55;;;;;;;6.60;1.85;;;11.70;99.90;;;;;;5011917;28;20120;-86
2022/09/26 08:57:46;;;;;;;4.00;1.90;;;11.70;99.90;;;;;;5012560;28;20111;-86
2022/09/26 09:00:18;;;;;;;9.15;2.78;;;11.70;99.90;;;;;;5013006;28;20132;-87
2022/09/26 09:03:14;;;;;;;5.95;2.10;;;11.70;99.90;;;;;;5027809;28;20038;-86
2022/09/26 09:06:04;;;;;;;7.43;2.45;;;11.70;99.90;;;;;;5029766;28;20484;-86
2022/09/26 09:08:45;;;;;;;6.00;2.28;;;12.20;99.90;;;;;;4996973;28;20327;-86
2022/09/26 09:11:33;;;;;;;4.93;2.35;;;11.70;99.90;;;;;;5011574;28;20120;-88
2022/09/26 09:14:04;;;;;;;7.18;2.00;;;11.70;99.90;;;;;;5013155;28;20128;-88
2022/09/26 09:16:57;;;;;;;5.97;2.33;;;11.70;99.90;;;;;;5012513;28;20192;-90
2022/09/26 09:20:00;;;;;;;6.33;2.50;;;11.80;99.90;;;;;;5027364;28;20049;-88
2022/09/26 09:22:32;;;;;;;6.03;2.42;;;11.80;99.90;;;;;;5028373;28;20128;-90
2022/09/26 09:25:12;;;;;;;4.10;2.42;;;11.90;99.90;;;;;;5027929;28;20057;-89
2022/09/26 09:27:53;;;;;;;5.65;2.28;;;11.90;99.90;;;;;;5010964;28;20103;-89
2022/09/26 09:30:53;;;;;;;8.00;2.45;;;11.90;99.90;;;;;;5012401;28;20048;-88
2022/09/26 09:33:36;;;;;;;5.15;1.83;;;12.00;99.90;;;;;;5010770;28;20077;-89
2022/09/26 09:36:13;;;;;;;7.82;1.92;;;11.90;99.90;;;;;;5027059;28;20081;-87
2022/09/26 09:38:43;;;;;;;4.45;2.15;;;12.00;99.90;;;;;;5028689;28;20057;-88
2022/09/26 09:41:23;;;;;;;8.40;2.60;;;12.00;99.90;;;;;;5010565;28;20060;-87
2022/09/26 09:43:59;;;;;;;9.60;1.73;;;12.00;99.90;;;;;;5011630;28;20567;-88
2022/09/26 09:46:39;;;;;;;22.35;4.97;;;12.00;99.90;;;;;;5028065;28;20072;-88
2022/09/26 09:49:20;;;;;;;8.68;2.92;;;12.00;99.90;;;;;;5026655;28;20073;-86
2022/09/26 09:52:18;;;;;;;5.88;1.98;;;12.00;99.90;;;;;;5011476;28;20094;-88
2022/09/26 09:55:03;;;;;;;8.00;2.72;;;12.00;99.90;;;;;;5027250;28;20158;-87
2022/09/26 09:57:49;;;;;;;5.10;1.80;;;12.00;99.90;;;;;;5026870;28;20496;-87
2022/09/26 10:00:24;;;;;;;8.38;2.17;;;12.00;99.90;;;;;;5028727;28;20060;-90
2022/09/26 10:03:00;;;;;;;6.40;1.70;;;12.00;99.90;;;;;;5011108;28;20084;-89
2022/09/26 10:05:44;;;;;;;7.85;2.10;;;12.00;99.90;;;;;;5027895;28;20057;-89
2022/09/26 10:08:25;;;;;;;11.57;2.42;;;12.00;99.90;;;;;;5028436;28;20085;-91
2022/09/26 10:11:20;;;;;;;6.65;2.78;;;12.00;99.90;;;;;;5010990;28;20050;-89
2022/09/26 10:13:49;;;;;;;5.68;2.20;;;12.00;99.90;;;;;;5011657;28;20136;-89
2022/09/26 10:16:14;;;;;;;4.47;2.20;;;11.90;99.90;;;;;;5027654;28;20512;-90
2022/09/26 10:19:05;;;;;;;5.82;2.70;;;11.90;99.90;;;;;;5027397;28;20045;-87
2022/09/26 10:21:36;;;;;;;10.88;4.18;;;11.90;99.90;;;;;;5027731;28;20065;-87
2022/09/26 10:24:03;;;;;;;4.18;2.60;;;11.90;99.90;;;;;;5009527;28;20041;-86
2022/09/26 10:26:34;;;;;;;4.78;2.67;;;11.90;99.90;;;;;;5011399;28;20448;-87
2022/09/26 10:29:27;;;;;;;7.72;2.97;;;11.90;99.90;;;;;;5010863;28;20138;-87
2022/09/26 10:31:59;;;;;;;8.15;2.63;;;11.90;99.90;;;;;;5037593;28;20095;-87
2022/09/26 10:34:30;;;;;;;5.22;3.08;;;12.80;99.90;;;;;;5015160;28;20054;-87
2022/09/26 10:36:57;;;;;;;8.10;3.25;;;12.00;99.90;;;;;;5031389;28;20068;-87
2022/09/26 10:42:20;;;;;;;9.63;3.33;;;12.10;99.90;;;;;;5053959;28;20064;-87
2022/09/26 10:44:49;;;;;;;5.28;2.80;;;12.20;99.90;;;;;;5037263;28;20038;-87
2022/09/26 10:47:18;;;;;;;6.00;2.85;;;12.20;99.90;;;;;;5054447;28;20285;-88
2022/09/26 10:49:58;;;;;;;11.35;3.33;;;12.10;99.90;;;;;;5053613;28;20104;-87
2022/09/26 10:52:33;;;;;;;4.55;2.70;;;12.10;99.90;;;;;;5032014;28;20335;-88
2022/09/26 10:55:05;;;;;;;6.47;3.15;;;12.10;99.90;;;;;;5052150;28;20038;-87
2022/09/26 10:57:39;;;;;;;5.97;3.45;;;12.00;99.90;;;;;;5052716;28;20038;-87
2022/09/26 11:00:07;;;;;;;4.65;3.10;;;12.00;99.90;;;;;;5051991;28;20053;-87
2022/09/26 11:02:34;;;;;;;4.70;2.83;;;12.00;99.90;;;;;;5051090;28;20068;-88
2022/09/26 11:07:51;;;;;;;6.57;3.53;;;12.00;99.90;;;;;;5049255;28;20129;-88
2022/09/26 11:10:23;;;;;;;6.63;3.45;;;11.90;99.90;;;;;;5014402;28;20045;-89
2022/09/26 11:12:58;;;;;;;3.28;2.35;;;11.90;99.90;;;;;;5038958;28;20606;-88
2022/09/26 11:15:24;;;;;;;5.43;3.17;;;11.90;99.90;;;;;;5041514;28;20083;-87
2022/09/26 11:17:52;;;;;;;6.50;2.80;;;11.90;99.90;;;;;;5034547;28;20081;-87
2022/09/26 11:20:24;;;;;;;5.82;3.13;;;12.00;99.90;;;;;;5034398;28;20053;-89
2022/09/26 11:23:34;;;;;;;4.85;3.00;;;11.90;99.90;;;;;;5018650;28;20029;-88
2022/09/26 11:26:34;;;;;;;5.68;2.70;;;11.90;99.90;;;;;;4977707;28;20115;-90
2022/09/26 11:29:12;;;;;;;7.75;2.97;;;11.90;99.90;;;;;;5018797;28;20084;-90
2022/09/26 11:31:41;;;;;;;6.10;2.88;;;11.90;99.90;;;;;;5016035;28;20077;-86
2022/09/26 11:34:13;;;;;;;4.97;2.75;;;11.80;99.90;;;;;;5034626;28;20420;-87
2022/09/26 11:36:46;;;;;;;4.15;3.15;;;11.90;99.90;;;;;;5016098;28;20042;-87
2022/09/26 11:39:50;;;;;;;4.80;2.47;;;11.90;99.90;;;;;;5033097;28;20435;-87
2022/09/26 11:42:31;;;;;;;5.95;2.80;;;11.90;99.90;;;;;;5016812;28;20048;-88
2022/09/26 11:45:02;;;;;;;6.65;2.85;;;11.90;99.90;;;;;;5031458;28;20045;-87
2022/09/26 11:47:56;;;;;;;6.15;2.83;;;11.90;99.90;;;;;;5035236;28;20054;-90
2022/09/26 11:50:39;;;;;;;6.97;3.10;;;11.90;99.90;;;;;;5032092;28;20100;-90
2022/09/26 11:53:04;;;;;;;8.02;2.17;;;11.90;99.90;;;;;;5032829;28;20061;-89
2022/09/26 11:56:06;;;;;;;4.78;2.78;;;11.90;99.90;;;;;;5017784;28;20045;-88
2022/09/26 11:58:52;;;;;;;6.78;2.53;;;11.90;99.90;;;;;;5015547;28;20050;-88
2022/09/26 12:01:26;;;;;;;7.22;3.75;;;12.00;99.90;;;;;;5034346;28;20084;-89
2022/09/26 12:04:11;;;;;;;3.97;2.33;;;12.00;99.90;;;;;;5034965;28;20072;-88
2022/09/26 12:06:47;;;;;;;5.88;2.72;;;12.10;99.90;;;;;;5016036;28;20038;-90
2022/09/26 12:09:28;;;;;;;3.47;2.55;;;12.10;99.90;;;;;;5017266;28;20087;-90
2022/09/26 12:12:23;;;;;;;3.33;2.60;;;12.10;99.90;;;;;;5032014;28;20057;-89
2022/09/26 12:14:52;;;;;;;6.50;2.40;;;12.10;99.90;;;;;;5030388;28;20132;-88
2022/09/26 12:17:36;;;;;;;4.88;2.20;;;12.10;99.90;;;;;;5030419;28;20084;-87
2022/09/26 12:20:11;;;;;;;4.78;2.70;;;12.20;99.90;;;;;;5011459;28;20492;-89
2022/09/26 12:23:10;;;;;;;2.58;2.00;;;12.20;99.90;;;;;;5013271;28;20049;-89
2022/09/26 12:25:36;;;;;;;3.17;1.90;;;12.30;99.90;;;;;;5013665;28;20049;-89
2022/09/26 12:28:28;;;;;;;3.55;2.15;;;12.50;99.90;;;;;;5027595;28;20488;-89
2022/09/26 12:31:22;;;;;;;3.40;1.75;;;12.30;99.90;;;;;;5013129;28;20049;-89
2022/09/26 12:34:31;;;;;;;4.63;2.08;;;12.30;99.90;;;;;;5012859;28;20053;-89
2022/09/26 12:37:06;;;;;;;4.88;1.95;;;12.30;99.90;;;;;;5011066;28;20064;-87
2022/09/26 12:40:03;;;;;;;3.17;2.15;;;12.40;99.90;;;;;;5029054;28;20408;-88
2022/09/26 12:42:50;;;;;;;2.35;2.10;;;12.40;99.90;;;;;;5012432;28;20046;-90
2022/09/26 12:45:57;;;;;;;3.80;2.00;;;12.40;99.90;;;;;;5027498;28;20049;-88
2022/09/26 12:48:33;;;;;;;3.20;2.20;;;12.50;99.90;;;;;;4974526;28;20059;-90
2022/09/26 12:51:23;;;;;;;5.38;2.13;;;12.70;99.90;;;;;;5029307;28;20053;-88
2022/09/26 12:53:52;;;;;;;2.97;1.60;;;12.80;99.90;;;;;;5027154;28;20060;-89
2022/09/26 12:56:38;;;;;;;2.58;1.63;;;12.80;99.90;;;;;;5012716;28;20046;-88
2022/09/26 12:59:34;;;;;;;4.45;1.67;;;12.80;99.90;;;;;;5028152;28;20522;-87
2022/09/26 13:02:02;;;;;;;3.63;1.48;;;12.70;99.90;;;;;;5010865;28;20052;-87
2022/09/26 13:04:34;;;;;;;4.93;1.80;;;12.70;99.90;;;;;;5028919;28;20045;-88
2022/09/26 13:07:23;;;;;;;4.65;1.75;;;12.80;99.90;;;;;;5010322;28;20046;-87
2022/09/26 13:10:07;;;;;;;2.03;1.80;;;12.90;99.90;;;;;;5012196;28;20095;-88
2022/09/26 13:12:47;;;;;;;2.00;1.65;;;12.90;99.90;;;;;;5012017;28;20052;-87
2022/09/26 13:15:33;;;;;;;4.32;1.95;;;13.00;99.90;;;;;;5010240;28;20069;-88
2022/09/26 13:18:07;;;;;;;2.75;1.58;;;13.00;99.90;;;;;;5029979;28;20045;-89
2022/09/26 13:20:43;;;;;;;2.17;1.30;;;13.00;99.90;;;;;;5028317;28;20492;-88
2022/09/26 13:23:52;;;;;;;2.33;1.58;;;13.30;99.90;;;;;;5013597;28;20045;-87
2022/09/26 13:26:44;;;;;;;4.53;1.50;;;13.10;99.90;;;;;;4971420;28;20064;-89
2022/09/26 13:29:42;;;;;;;3.65;1.40;;;13.10;99.90;;;;;;5014009;28;20053;-88
2022/09/26 13:32:37;;;;;;;2.08;1.48;;;13.00;99.90;;;;;;5016240;28;20064;-89
2022/09/26 13:35:22;;;;;;;3.67;1.48;;;13.00;99.90;;;;;;5034040;28;20088;-89
2022/09/26 13:38:19;;;;;;;2.10;1.38;;;13.10;99.90;;;;;;5015524;28;20115;-91
2022/09/26 13:41:13;;;;;;;4.90;1.45;;;13.20;99.90;;;;;;5014938;28;20076;-87